Time;durP1;ratioP1;P1;durP2;ratioP2;P2;SDS_P1;SDS_P2;PMS_P1;PMS_P2;Temp;Humidity;BMP_temperature;BMP_pressure;BME280_temperature;BME280_humidity;BME280_pressure;Samples;Min_cycle;Max_cycle;Signal;HPM_P1;HPM_P2
2022/08/22 00:01:04;;;;;;;3.70;1.85;;;;;;;15.01;100.00;100695.56;5167876;28;20113;-77
2022/08/22 00:03:46;;;;;;;3.90;1.60;;;;;;;14.88;100.00;100694.50;5137145;28;20034;-76
2022/08/22 00:06:50;;;;;;;3.13;1.70;;;;;;;14.60;100.00;100698.59;5173684;28;20053;-76
2022/08/22 00:10:15;;;;;;;3.55;1.65;;;;;;;14.57;100.00;100693.50;5160288;28;20033;-77
2022/08/22 00:12:51;;;;;;;6.20;1.65;;;;;;;14.42;100.00;100693.41;5129710;29;20182;-76
2022/08/22 00:15:30;;;;;;;5.65;1.88;;;;;;;14.55;100.00;100697.13;5179872;28;20031;-77
2022/08/22 00:18:12;;;;;;;8.73;1.70;;;;;;;14.61;100.00;100700.31;5167713;28;20030;-76
2022/08/22 00:20:59;;;;;;;4.82;1.95;;;;;;;14.78;100.00;100691.56;5160838;28;20120;-77
2022/08/22 00:23:43;;;;;;;4.55;1.80;;;;;;;14.80;100.00;100695.81;5143189;28;20353;-77
2022/08/22 00:26:14;;;;;;;5.90;1.75;;;;;;;15.08;100.00;100680.31;5153456;28;20339;-77
2022/08/22 00:29:07;;;;;;;6.57;2.10;;;;;;;14.96;100.00;100691.47;5168529;28;20051;-77
2022/08/22 00:31:42;;;;;;;5.75;1.92;;;;;;;15.06;100.00;100690.94;5165318;28;20022;-76
2022/08/22 00:34:38;;;;;;;5.95;1.70;;;;;;;14.82;100.00;100702.72;5169276;28;20101;-77
2022/08/22 00:37:22;;;;;;;;;;;;;;;14.74;100.00;100695.31;5166665;28;20065;-77
2022/08/22 00:40:08;;;;;;;3.63;1.73;;;;;;;14.77;100.00;100698.59;5162000;28;20402;-75
2022/08/22 00:43:15;;;;;;;6.53;2.07;;;;;;;15.01;100.00;100682.41;5169422;28;20022;-79
2022/08/22 00:46:04;;;;;;;6.25;2.17;;;;;;;14.70;100.00;100696.34;5167791;28;20026;-78
2022/08/22 00:49:05;;;;;;;5.18;1.70;;;;;;;14.99;100.00;100692.19;5166332;28;20030;-78
2022/08/22 00:51:57;;;;;;;4.97;1.80;;;;;;;15.03;100.00;100712.13;5165646;28;20026;-78
2022/08/22 00:54:49;;;;;;;5.28;1.63;;;;;;;15.03;100.00;100709.50;5163691;28;20168;-78
2022/08/22 00:57:22;;;;;;;6.43;1.95;;;;;;;14.76;100.00;100703.97;5168481;28;20034;-78
2022/08/22 01:00:15;;;;;;;4.25;1.73;;;;;;;15.00;100.00;100704.41;5146183;28;20546;-78
2022/08/22 01:02:58;;;;;;;6.38;3.72;;;;;;;14.97;100.00;100709.84;5168488;28;20030;-77
2022/08/22 01:05:47;;;;;;;6.32;2.75;;;;;;;14.88;100.00;100705.03;5163812;28;20030;-79
2022/08/22 01:08:36;;;;;;;3.70;1.60;;;;;;;15.06;100.00;100700.59;5168445;28;20113;-78
2022/08/22 01:11:47;;;;;;;5.55;1.70;;;;;;;14.34;100.00;100719.22;5155314;28;20022;-79
2022/08/22 01:14:33;;;;;;;3.95;1.60;;;;;;;14.49;100.00;100713.22;5168828;28;20014;-79
2022/08/22 01:17:34;;;;;;;4.88;1.65;;;;;;;14.23;100.00;100714.47;5169193;28;20500;-78
2022/08/22 01:20:23;;;;;;;4.18;1.70;;;;;;;13.94;100.00;100708.88;5167367;28;20022;-78
2022/08/22 01:23:18;;;;;;;5.65;1.75;;;;;;;13.80;100.00;100709.53;5144138;28;20030;-78
2022/08/22 01:26:19;;;;;;;5.22;1.70;;;;;;;14.06;100.00;100703.06;5165850;28;20283;-78
2022/08/22 01:29:27;;;;;;;5.25;1.80;;;;;;;14.13;100.00;100701.81;5127564;28;20079;-78
2022/08/22 01:32:03;;;;;;;3.88;1.67;;;;;;;14.35;100.00;100705.16;5165242;28;20555;-78
2022/08/22 01:34:52;;;;;;;4.40;1.70;;;;;;;14.18;100.00;100699.84;5166832;28;20588;-79
2022/08/22 01:37:37;;;;;;;4.32;2.10;;;;;;;14.45;100.00;100698.53;5158718;28;20507;-79
2022/08/22 01:40:29;;;;;;;3.95;2.00;;;;;;;14.34;100.00;100703.44;5166676;28;20488;-79
2022/08/22 01:43:08;;;;;;;4.38;2.03;;;;;;;14.49;100.00;100693.03;5167333;28;20026;-79
2022/08/22 01:46:17;;;;;;;4.38;1.75;;;;;;;14.15;100.00;100687.69;5164673;28;20030;-79
2022/08/22 01:48:54;;;;;;;5.18;1.80;;;;;;;14.18;100.00;100694.59;5166074;28;20032;-79
2022/08/22 01:51:35;;;;;;;4.05;1.60;;;;;;;14.38;100.00;100697.09;5160255;28;20026;-79
2022/08/22 01:54:19;;;;;;;3.47;1.75;;;;;;;14.60;100.00;100698.59;5166285;28;20026;-80
2022/08/22 01:56:49;;;;;;;4.03;1.60;;;;;;;14.07;100.00;100702.13;5165695;28;20283;-79
2022/08/22 01:59:28;;;;;;;2.90;1.40;;;;;;;13.76;100.00;100701.88;5161868;28;20030;-79
2022/08/22 02:02:30;;;;;;;3.70;1.60;;;;;;;14.13;100.00;100701.81;5158908;28;20034;-78
2022/08/22 02:05:24;;;;;;;6.97;1.80;;;;;;;13.73;100.00;100704.63;5153454;28;20053;-78
2022/08/22 02:08:26;;;;;;;5.47;2.13;;;;;;;13.67;100.00;100703.13;5163489;28;20061;-80
2022/08/22 02:11:01;;;;;;;4.97;2.00;;;;;;;13.54;100.00;100702.00;5168814;28;20030;-79
2022/08/22 02:13:55;;;;;;;4.40;1.90;;;;;;;13.78;100.00;100700.00;5165828;28;20018;-79
2022/08/22 02:16:40;;;;;;;3.67;2.25;;;;;;;13.76;100.00;100701.88;5156498;28;20038;-78
2022/08/22 02:19:25;;;;;;;4.43;1.88;;;;;;;13.82;100.00;100707.69;5156023;28;20101;-79
2022/08/22 02:22:00;;;;;;;4.18;1.65;;;;;;;13.99;100.00;100699.88;5146907;28;20069;-78
2022/08/22 02:24:59;;;;;;;6.47;1.77;;;;;;;14.07;100.00;100702.13;5159380;28;20031;-79
2022/08/22 02:27:45;;;;;;;3.35;1.70;;;;;;;13.91;100.00;100703.78;5137835;28;20056;-78
2022/08/22 02:30:29;;;;;;;4.30;1.88;;;;;;;14.01;100.00;100697.16;5164489;28;20396;-79
2022/08/22 02:33:09;;;;;;;4.53;1.90;;;;;;;13.80;100.00;100704.28;5157180;28;20468;-78
2022/08/22 02:35:50;;;;;;;3.83;1.70;;;;;;;13.55;100.00;100702.84;5164441;28;20057;-79
2022/08/22 02:38:28;;;;;;;8.63;2.25;;;;;;;13.42;100.00;100706.94;5162208;28;20022;-79
2022/08/22 02:41:07;;;;;;;5.45;2.00;;;;;;;13.30;100.00;100708.34;5164166;28;20183;-80
2022/08/22 02:44:03;;;;;;;6.25;2.05;;;;;;;13.19;100.00;100700.09;5161604;28;20117;-78
2022/08/22 02:47:14;;;;;;;2.63;1.80;;;;;;;13.46;100.00;100704.13;5149923;28;20054;-79
2022/08/22 02:50:05;;;;;;;5.72;2.15;;;;;;;13.53;100.00;100708.16;5161530;28;20022;-78
2022/08/22 02:52:46;;;;;;;7.35;2.45;;;;;;;13.42;100.00;100701.69;5158159;28;20273;-76
2022/08/22 02:55:37;;;;;;;4.38;2.35;;;;;;;13.68;100.00;100703.97;5163652;28;20203;-79
2022/08/22 02:58:18;;;;;;;5.45;2.08;;;;;;;13.54;100.00;100703.78;5160099;28;20113;-79
2022/08/22 03:00:57;;;;;;;6.75;2.45;;;;;;;13.76;100.00;100705.31;5161480;28;20110;-78
2022/08/22 03:03:34;;;;;;;5.05;2.30;;;;;;;13.52;100.00;100713.47;5158344;28;20026;-79
2022/08/22 03:06:39;;;;;;;5.53;1.90;;;;;;;13.83;100.00;100705.91;5163883;28;20399;-78
2022/08/22 03:09:15;;;;;;;4.28;2.42;;;;;;;13.75;100.00;100710.66;5160969;28;20033;-78
2022/08/22 03:11:51;;;;;;;5.22;2.17;;;;;;;13.68;100.00;100699.59;5163042;28;20216;-79
2022/08/22 03:14:43;;;;;;;5.35;1.83;;;;;;;13.85;100.00;100707.53;5131141;28;20274;-79
2022/08/22 03:17:22;;;;;;;3.30;1.77;;;;;;;13.89;100.00;100703.00;5162308;28;20030;-78
2022/08/22 03:20:06;;;;;;;3.40;1.90;;;;;;;13.96;100.00;100699.16;5160353;28;20030;-79
2022/08/22 03:22:41;;;;;;;3.53;1.90;;;;;;;13.85;100.00;100702.28;5156667;28;20086;-79
2022/08/22 03:25:32;;;;;;;7.90;1.55;;;;;;;13.76;100.00;100701.88;5164303;28;20388;-79
2022/08/22 03:28:03;;;;;;;4.15;1.65;;;;;;;13.58;100.00;100700.09;5164335;28;20030;-78
2022/08/22 03:30:40;;;;;;;3.10;1.70;;;;;;;13.29;100.00;100695.28;5163914;28;20080;-78
2022/08/22 03:33:25;;;;;;;4.13;1.65;;;;;;;13.63;100.00;100701.59;5163735;28;20519;-79
2022/08/22 03:36:08;;;;;;;3.17;1.75;;;;;;;13.44;100.00;100700.69;5147804;28;20038;-79
2022/08/22 03:38:53;;;;;;;3.40;1.60;;;;;;;13.30;100.00;100697.00;5162771;28;20034;-79
2022/08/22 03:41:47;;;;;;;3.25;1.55;;;;;;;13.03;100.00;100706.94;5156568;28;20026;-79
2022/08/22 03:44:30;;;;;;;6.07;1.75;;;;;;;13.05;100.00;100704.25;5160754;28;20381;-79
2022/08/22 03:47:38;;;;;;;5.60;1.52;;;;;;;13.00;100.00;100709.69;5160203;28;20470;-79
2022/08/22 03:50:47;;;;;;;5.32;1.67;;;;;;;13.03;100.00;100711.34;5157530;28;20049;-78
2022/08/22 03:53:47;;;;;;;7.53;2.10;;;;;;;13.32;100.00;100710.91;5127492;28;20069;-79
2022/08/22 03:56:24;;;;;;;4.15;1.60;;;;;;;13.42;100.00;100709.56;5155767;28;20416;-79
2022/08/22 03:59:19;;;;;;;2.80;1.40;;;;;;;13.34;100.00;100719.56;5162604;28;20061;-79
2022/08/22 04:01:55;;;;;;;3.08;1.85;;;;;;;13.04;100.00;100720.91;5161822;28;20041;-79
2022/08/22 04:04:48;;;;;;;3.80;1.70;;;;;;;12.94;100.00;100722.22;5144979;28;20029;-78
2022/08/22 04:07:18;;;;;;;4.05;1.95;;;;;;;13.09;100.00;100729.44;5128500;28;20046;-80
2022/08/22 04:10:13;;;;;;;3.15;1.70;;;;;;;13.49;100.00;100721.50;5161211;28;20440;-79
2022/08/22 04:13:14;;;;;;;3.05;1.70;;;;;;;13.45;100.00;100723.44;5144245;28;20396;-79
2022/08/22 04:15:54;;;;;;;3.58;1.60;;;;;;;13.34;100.00;100724.81;5161786;28;20026;-79
2022/08/22 04:19:06;;;;;;;5.07;1.88;;;;;;;13.26;100.00;100732.19;5159524;28;20034;-78
2022/08/22 04:21:36;;;;;;;7.65;2.38;;;;;;;13.22;100.00;100726.19;5158396;28;20034;-78
2022/08/22 04:24:15;;;;;;;9.07;2.17;;;;;;;13.11;100.00;100730.22;5165535;28;20027;-79
2022/08/22 04:26:58;;;;;;;5.63;2.00;;;;;;;13.20;100.00;100732.47;5165381;28;20018;-79
2022/08/22 04:29:42;;;;;;;7.05;1.88;;;;;;;13.50;100.00;100724.06;5165582;28;20034;-78
2022/08/22 04:32:45;;;;;;;7.35;1.63;;;;;;;13.40;100.00;100728.00;5165766;28;20065;-78
2022/08/22 04:35:28;;;;;;;6.00;1.50;;;;;;;13.36;100.00;100728.22;5165742;28;20045;-78
2022/08/22 04:38:15;;;;;;;4.05;1.90;;;;;;;13.30;100.00;100733.75;5166011;28;20030;-79
2022/08/22 04:40:57;;;;;;;3.35;1.90;;;;;;;13.05;100.00;100733.94;5166129;28;20077;-78
2022/08/22 04:43:30;;;;;;;3.88;1.80;;;;;;;13.05;100.00;100738.38;5165873;28;20034;-78
2022/08/22 04:46:18;;;;;;;4.97;1.85;;;;;;;12.98;100.00;100737.78;5166382;28;20488;-78
2022/08/22 04:49:02;;;;;;;4.68;1.98;;;;;;;12.87;100.00;100738.25;5161601;28;20447;-78
2022/08/22 04:51:39;;;;;;;5.97;2.58;;;;;;;12.97;100.00;100739.59;5163015;28;20511;-78
2022/08/22 04:54:46;;;;;;;3.78;2.00;;;;;;;12.99;100.00;100733.34;5165847;28;20034;-79
2022/08/22 04:57:31;;;;;;;;;;;;;;;13.13;100.00;100736.25;5165724;28;20149;-78
2022/08/22 05:00:09;;;;;;;7.35;1.98;;;;;;;13.15;100.00;100742.28;5125540;28;19918;-78
2022/08/22 05:02:51;;;;;;;3.53;1.92;;;;;;;13.26;100.00;100737.44;5161476;28;20479;-78
2022/08/22 05:05:34;;;;;;;4.57;1.90;;;;;;;13.40;100.00;100745.56;5150144;28;20064;-78
2022/08/22 05:08:09;;;;;;;3.67;2.03;;;;;;;13.42;100.00;100743.72;5164554;28;20077;-78
2022/08/22 05:10:45;;;;;;;4.90;2.10;;;;;;;13.74;100.00;100741.31;5165680;28;20112;-79
2022/08/22 05:13:18;;;;;;;;;;;;;;;13.79;100.00;100744.63;5166133;28;20147;-79
2022/08/22 05:15:53;;;;;;;3.17;2.05;;;;;;;14.35;100.00;100739.34;5165643;28;19949;-78
2022/08/22 05:18:38;;;;;;;4.80;1.60;;;;;;;15.74;94.94;100738.19;5160139;28;20031;-78
2022/08/22 05:21:10;;;;;;;6.72;1.70;;;;;;;16.64;93.94;100735.75;5152462;28;20031;-78
2022/08/22 05:23:47;;;;;;;3.95;1.63;;;;;;;16.91;89.21;100744.69;5161783;28;20022;-78
2022/08/22 05:26:19;;;;;;;2.75;1.50;;;;;;;17.48;91.75;100743.91;5164024;28;20032;-78
2022/08/22 05:28:58;;;;;;;2.70;1.40;;;;;;;18.00;87.64;100745.00;5156692;28;20034;-79
2022/08/22 05:31:37;;;;;;;6.50;1.60;;;;;;;18.48;84.80;100749.84;5163721;28;20030;-80
2022/08/22 05:34:15;;;;;;;3.17;1.50;;;;;;;19.99;78.50;100750.75;5164000;28;20026;-80
2022/08/22 05:36:53;;;;;;;2.92;1.30;;;;;;;19.55;78.42;100747.75;5167172;28;20407;-79
2022/08/22 05:39:26;;;;;;;3.72;1.70;;;;;;;19.17;82.65;100760.13;5162024;28;20061;-81
2022/08/22 05:42:01;;;;;;;4.85;1.52;;;;;;;20.37;80.11;100750.69;5169662;28;20026;-81
2022/08/22 05:44:36;;;;;;;2.80;1.52;;;;;;;20.31;79.09;100757.28;5168787;28;20018;-79
2022/08/22 05:47:21;;;;;;;5.35;1.50;;;;;;;22.61;69.33;100753.41;5163255;28;20031;-78
2022/08/22 05:50:07;;;;;;;4.95;1.55;;;;;;;22.69;71.04;100757.97;5162600;28;20492;-79
2022/08/22 05:52:38;;;;;;;2.83;1.60;;;;;;;21.16;73.99;100766.78;5161328;28;20045;-78
2022/08/22 05:55:21;;;;;;;4.47;1.60;;;;;;;19.97;77.75;100781.03;5167164;28;20395;-81
2022/08/22 05:58:02;;;;;;;3.72;1.80;;;;;;;20.02;77.59;100771.81;5166783;28;20022;-78
2022/08/22 06:00:39;;;;;;;4.93;1.77;;;;;;;18.87;83.91;100780.69;5167437;28;20022;-78
2022/08/22 06:03:37;;;;;;;3.65;1.90;;;;;;;17.78;88.13;100782.53;5166831;28;20098;-78
2022/08/22 06:06:13;;;;;;;9.07;2.30;;;;;;;17.65;91.42;100778.91;5155251;28;20031;-78
2022/08/22 06:09:28;;;;;;;4.30;2.17;;;;;;;17.35;94.65;100775.47;5163833;28;20030;-78
2022/08/22 06:12:10;;;;;;;4.85;2.40;;;;;;;17.43;95.32;100781.19;5121323;29;20051;-79
2022/08/22 06:14:43;;;;;;;5.82;2.72;;;;;;;17.03;99.40;100780.97;5155303;28;20403;-79
2022/08/22 06:17:20;;;;;;;5.47;2.47;;;;;;;17.40;96.99;100776.09;5163349;28;20058;-78
2022/08/22 06:19:52;;;;;;;4.78;2.63;;;;;;;16.73;100.00;100776.59;5161800;28;20492;-79
2022/08/22 06:22:27;;;;;;;5.15;2.75;;;;;;;17.04;100.00;100780.00;5166502;28;20092;-79
2022/08/22 06:25:06;;;;;;;5.68;3.40;;;;;;;16.80;100.00;100782.28;5166311;28;20039;-78
2022/08/22 06:27:37;;;;;;;5.50;3.15;;;;;;;17.01;100.00;100778.38;5164984;28;20534;-78
2022/08/22 06:30:12;;;;;;;6.65;2.80;;;;;;;17.34;100.00;100779.06;5161967;28;20038;-78
2022/08/22 06:32:49;;;;;;;5.38;3.20;;;;;;;17.57;100.00;100775.03;5147022;28;20191;-78
2022/08/22 06:38:33;;;;;;;8.07;2.75;;;;;;;22.04;77.26;100763.41;5144481;28;20097;-80
2022/08/22 06:41:06;;;;;;;6.78;2.80;;;;;;;22.73;75.38;100770.09;5188731;22;20052;-72
2022/08/22 06:43:40;;;;;;;5.57;2.40;;;;;;;23.50;72.05;100767.03;5177814;28;20076;-73
2022/08/22 06:46:15;;;;;;;4.75;2.03;;;;;;;25.67;66.41;100751.56;5190029;28;20035;-72
2022/08/22 06:48:47;;;;;;;4.90;2.30;;;;;;;24.35;71.11;100766.59;5179067;28;20033;-73
2022/08/22 06:51:20;;;;;;;5.18;1.85;;;;;;;25.11;68.88;100762.19;5186905;28;20280;-73
2022/08/22 06:53:55;;;;;;;3.63;1.92;;;;;;;24.31;69.48;100761.66;5184719;28;20088;-73
2022/08/22 06:56:34;;;;;;;5.00;2.00;;;;;;;25.22;66.59;100762.09;5192022;28;20029;-73
2022/08/22 06:59:10;;;;;;;3.47;1.88;;;;;;;25.55;64.53;100763.44;5187827;28;20055;-72
2022/08/22 07:01:57;;;;;;;5.55;1.73;;;;;;;26.64;61.74;100757.16;5185374;28;20034;-73
2022/08/22 07:04:29;;;;;;;4.57;1.90;;;;;;;26.21;66.06;100765.03;5181558;28;20064;-73
2022/08/22 07:07:00;;;;;;;4.53;1.77;;;;;;;25.20;65.90;100768.56;5180826;28;20491;-73
2022/08/22 07:09:34;;;;;;;5.13;1.80;;;;;;;26.30;62.89;100764.13;5190324;28;20404;-73
2022/08/22 07:12:17;;;;;;;4.75;1.88;;;;;;;29.43;56.00;100751.34;5187194;28;20030;-73
2022/08/22 07:14:51;;;;;;;4.45;1.80;;;;;;;28.57;56.85;100756.50;5187669;28;20462;-73
2022/08/22 07:17:24;;;;;;;3.95;1.60;;;;;;;30.88;53.32;100758.75;5179138;28;20311;-73
2022/08/22 07:20:04;;;;;;;6.40;1.58;;;;;;;28.01;60.38;100761.66;5183498;28;20029;-73
2022/08/22 07:22:36;;;;;;;4.38;1.90;;;;;;;27.58;61.78;100756.34;5187346;28;20079;-73
2022/08/22 07:25:12;;;;;;;6.35;2.00;;;;;;;28.92;59.13;100753.56;5190690;28;20044;-72
2022/08/22 07:27:46;;;;;;;5.40;2.10;;;;;;;28.63;60.46;100758.53;5188165;28;20032;-73
2022/08/22 07:30:19;;;;;;;4.00;1.85;;;;;;;28.96;57.38;100763.84;5190112;28;20124;-72
2022/08/22 07:33:03;;;;;;;3.67;1.80;;;;;;;30.75;55.00;100757.69;5183923;28;20030;-73
2022/08/22 07:35:41;;;;;;;4.13;1.65;;;;;;;29.40;57.21;100757.09;5181526;28;20029;-73
2022/08/22 07:38:20;;;;;;;6.78;1.83;;;;;;;29.21;59.26;100762.84;5188840;28;20030;-73
2022/08/22 07:41:23;;;;;;;6.13;2.00;;;;;;;29.25;58.77;100758.78;5185550;28;20116;-73
2022/08/22 07:44:13;;;;;;;4.85;1.90;;;;;;;28.88;59.52;100760.28;5131686;28;20188;-73
2022/08/22 07:47:07;;;;;;;5.07;2.28;;;;;;;28.62;59.56;100756.84;5185938;28;20387;-73
2022/08/22 07:49:53;;;;;;;4.07;1.83;;;;;;;29.64;57.14;100753.56;5182980;28;20107;-72
2022/08/22 07:52:29;;;;;;;5.15;1.90;;;;;;;29.25;57.69;100757.97;5182945;28;20037;-73
2022/08/22 07:55:16;;;;;;;7.35;2.25;;;;;;;29.59;56.85;100758.63;5189051;28;20026;-73
2022/08/22 07:57:54;;;;;;;5.45;1.83;;;;;;;29.76;57.03;100763.78;5190523;28;20125;-73
2022/08/22 08:00:25;;;;;;;3.80;1.70;;;;;;;30.88;55.92;100764.16;5185468;28;20076;-73
2022/08/22 08:03:00;;;;;;;4.75;1.95;;;;;;;30.74;54.20;100763.28;5190837;28;20034;-73
2022/08/22 08:05:32;;;;;;;;;;;;;;;32.54;52.64;100750.16;5188563;28;20028;-71
2022/08/22 08:08:25;;;;;;;5.60;1.88;;;;;;;32.17;50.99;100753.84;5192748;28;19967;-72
2022/08/22 08:10:59;;;;;;;8.57;1.80;;;;;;;29.77;55.27;100759.25;5187903;28;20060;-73
2022/08/22 08:13:34;;;;;;;13.10;2.85;;;;;;;30.43;55.90;100757.84;5192617;28;20022;-73
2022/08/22 08:16:09;;;;;;;5.97;2.20;;;;;;;31.04;54.00;100752.41;5193120;28;20042;-73
2022/08/22 08:18:40;;;;;;;6.47;1.70;;;;;;;30.06;56.04;100759.56;5183461;28;20120;-73
2022/08/22 08:21:25;;;;;;;19.90;2.78;;;;;;;33.22;51.01;100751.31;5190626;28;20108;-72
2022/08/22 08:23:58;;;;;;;9.70;1.88;;;;;;;32.26;54.02;100755.44;5188466;28;20033;-73
2022/08/22 08:26:37;;;;;;;7.13;1.95;;;;;;;33.48;50.63;100751.53;5192162;28;20029;-72
2022/08/22 08:29:08;;;;;;;7.22;1.90;;;;;;;30.08;55.56;100757.50;5192209;28;20044;-73
2022/08/22 08:31:41;;;;;;;5.65;1.70;;;;;;;32.00;52.76;100746.94;5186677;28;20531;-72
2022/08/22 08:34:23;;;;;;;3.25;1.33;;;;;;;33.44;50.57;100751.09;5191023;28;20503;-71
2022/08/22 08:36:59;;;;;;;3.65;1.50;;;;;;;31.68;53.55;100752.69;5184907;28;20061;-72
2022/08/22 08:39:48;;;;;;;6.53;1.83;;;;;;;34.10;48.36;100746.94;5191558;28;20470;-72
2022/08/22 08:43:25;;;;;;;5.63;2.22;;;;;;;36.18;45.96;100743.47;5194622;28;20032;-72
2022/08/22 08:45:50;;;;;;;4.88;1.58;;;;;;;35.82;45.44;100743.09;5185592;28;20041;-72
2022/08/22 08:48:32;;;;;;;5.05;1.35;;;;;;;36.31;44.15;100739.84;5186868;28;20487;-71
2022/08/22 08:51:14;;;;;;;5.63;1.85;;;;;;;34.42;48.75;100743.56;5184819;28;20038;-71
2022/08/22 08:53:53;;;;;;;3.00;1.30;;;;;;;36.08;44.81;100740.31;5188668;28;20025;-72
2022/08/22 08:56:45;;;;;;;3.35;1.40;;;;;;;33.38;48.23;100746.47;5186179;28;20507;-71
2022/08/22 08:59:34;;;;;;;3.88;1.73;;;;;;;34.67;45.81;100739.25;5190793;28;20033;-72
2022/08/22 09:02:25;;;;;;;3.92;1.30;;;;;;;35.27;46.67;100738.13;5187352;28;20049;-72
2022/08/22 09:05:31;;;;;;;5.43;1.50;;;;;;;33.78;46.47;100742.16;5185078;28;20053;-72
2022/08/22 09:08:46;;;;;;;4.35;1.40;;;;;;;34.71;45.45;100735.13;5172262;28;20132;-72
2022/08/22 09:11:47;;;;;;;3.22;1.25;;;;;;;33.68;47.59;100739.78;5152771;28;20037;-71
2022/08/22 09:14:45;;;;;;;5.57;1.30;;;;;;;33.20;47.92;100745.25;5193081;28;20029;-72
2022/08/22 09:17:54;;;;;;;5.75;1.33;;;;;;;35.89;43.90;100732.19;5189646;28;20029;-72
2022/08/22 09:21:06;;;;;;;3.35;1.10;;;;;;;35.84;43.21;100732.88;5180840;28;20038;-71
2022/08/22 09:23:49;;;;;;;7.63;1.60;;;;;;;34.30;45.04;100742.47;5147716;28;20038;-71
2022/08/22 09:26:28;;;;;;;3.53;1.25;;;;;;;32.12;47.22;100734.59;5181173;28;20033;-71
2022/08/22 09:29:17;;;;;;;4.55;1.20;;;;;;;31.88;49.46;100742.19;5187023;28;20030;-71
2022/08/22 09:32:04;;;;;;;7.38;1.40;;;;;;;31.86;46.80;100734.25;5189496;28;20403;-70
2022/08/22 09:35:00;;;;;;;3.72;1.33;;;;;;;30.48;49.51;100738.41;5181261;28;20514;-72
2022/08/22 09:37:37;;;;;;;4.20;1.30;;;;;;;30.33;49.37;100735.66;5184046;28;20582;-72
2022/08/22 09:40:42;;;;;;;4.50;1.38;;;;;;;30.60;49.58;100726.25;5184260;28;20053;-72
2022/08/22 09:43:28;;;;;;;4.78;1.33;;;;;;;30.15;47.40;100726.13;5184751;28;20034;-72
2022/08/22 09:46:21;;;;;;;4.85;1.30;;;;;;;29.78;49.47;100725.91;5188159;28;20510;-72
2022/08/22 09:48:59;;;;;;;5.05;1.58;;;;;;;29.93;50.85;100721.47;5179776;28;20116;-72
2022/08/22 09:51:33;;;;;;;5.63;1.42;;;;;;;29.39;52.47;100727.66;5189526;28;20036;-72
2022/08/22 09:54:17;;;;;;;4.03;1.45;;;;;;;28.49;51.58;100726.06;5189444;28;20560;-73
2022/08/22 09:56:50;;;;;;;3.42;1.27;;;;;;;29.77;51.29;100718.81;5183164;28;20392;-73
2022/08/22 09:59:42;;;;;;;3.00;1.27;;;;;;;29.82;52.23;100717.31;5185865;28;20033;-72
2022/08/22 10:02:27;;;;;;;3.72;1.33;;;;;;;29.71;52.47;100712.28;5189026;28;20041;-72
2022/08/22 10:05:21;;;;;;;5.20;1.70;;;;;;;28.72;51.36;100714.50;5186420;28;20037;-72
2022/08/22 10:08:26;;;;;;;4.75;1.77;;;;;;;29.18;52.11;100713.84;5182774;28;20200;-72
2022/08/22 10:11:14;;;;;;;2.35;1.20;;;;;;;29.39;51.50;100706.09;5185536;28;20037;-72
2022/08/22 10:14:00;;;;;;;5.32;1.63;;;;;;;29.09;53.24;100709.50;5188182;28;20101;-72
2022/08/22 10:16:40;;;;;;;3.35;1.10;;;;;;;28.93;51.95;100707.63;5183324;28;20096;-72
2022/08/22 10:19:29;;;;;;;3.72;1.00;;;;;;;28.99;50.47;100709.66;5189011;28;20128;-72
2022/08/22 10:22:20;;;;;;;4.47;1.40;;;;;;;28.60;50.50;100697.00;5188403;28;20116;-72
2022/08/22 10:24:57;;;;;;;3.00;1.00;;;;;;;28.79;50.67;100697.53;5186440;28;20030;-71
2022/08/22 10:27:41;;;;;;;3.10;1.23;;;;;;;28.40;51.78;100689.38;5185611;28;20041;-71
2022/08/22 10:30:17;;;;;;;5.75;1.45;;;;;;;28.28;52.77;100702.25;5191353;28;20048;-72
2022/08/22 10:33:10;;;;;;;3.50;1.38;;;;;;;28.34;51.75;100690.88;5187828;28;20175;-72
2022/08/22 10:35:49;;;;;;;4.38;1.60;;;;;;;27.50;52.26;100693.66;5187705;28;20053;-71
2022/08/22 10:38:28;;;;;;;3.95;1.30;;;;;;;27.54;52.07;100687.81;5185371;28;20126;-71
2022/08/22 10:41:29;;;;;;;5.20;1.40;;;;;;;27.83;50.73;100693.72;5184184;28;20124;-71
2022/08/22 10:44:25;;;;;;;5.97;1.30;;;;;;;28.15;53.19;100684.94;5181604;28;20042;-72
2022/08/22 10:47:04;;;;;;;4.32;1.20;;;;;;;28.03;53.39;100687.06;5177749;28;20053;-72
2022/08/22 10:49:50;;;;;;;2.85;1.10;;;;;;;27.75;52.64;100691.00;5180410;28;20470;-72
2022/08/22 10:52:30;;;;;;;3.58;1.10;;;;;;;27.90;52.98;100686.69;5186249;28;20037;-72
2022/08/22 10:55:10;;;;;;;6.00;1.45;;;;;;;27.95;51.07;100681.66;5189224;28;20032;-71
2022/08/22 10:57:40;;;;;;;3.67;1.10;;;;;;;28.02;52.21;100673.78;5186126;28;20052;-72
2022/08/22 11:00:49;;;;;;;5.38;1.27;;;;;;;27.81;51.34;100668.00;5190903;28;20021;-71
2022/08/22 11:03:34;;;;;;;2.75;1.60;;;;;;;28.08;52.14;100673.13;5176651;28;20034;-72
2022/08/22 11:06:13;;;;;;;3.28;1.10;;;;;;;28.09;50.74;100664.09;5187319;28;20173;-71
2022/08/22 11:08:58;;;;;;;4.50;1.15;;;;;;;27.94;51.17;100655.78;5185650;28;20087;-72
2022/08/22 11:11:38;;;;;;;2.37;0.97;;;;;;;27.74;50.81;100656.19;5185503;28;20037;-72
2022/08/22 11:14:20;;;;;;;3.05;1.20;;;;;;;27.90;53.26;100653.56;5190792;28;20350;-71
2022/08/22 11:17:16;;;;;;;7.90;1.23;;;;;;;28.02;54.28;100658.50;5184652;28;20113;-72
2022/08/22 11:20:13;;;;;;;2.58;1.17;;;;;;;28.12;52.83;100661.88;5177761;28;20153;-71
2022/08/22 11:23:15;;;;;;;4.18;1.25;;;;;;;27.89;52.12;100659.97;5189157;28;20045;-72
2022/08/22 11:25:55;;;;;;;2.92;1.00;;;;;;;27.98;52.70;100654.44;5186423;28;20490;-72
2022/08/22 11:28:29;;;;;;;5.40;1.13;;;;;;;28.03;52.82;100653.97;5183579;28;20334;-71
2022/08/22 11:31:15;;;;;;;3.60;1.10;;;;;;;27.87;52.93;100654.78;5190213;28;20057;-72
2022/08/22 11:34:02;;;;;;;7.70;1.20;;;;;;;27.45;51.25;100656.53;5192901;28;20148;-72
2022/08/22 11:36:45;;;;;;;3.72;1.13;;;;;;;26.70;53.25;100660.00;5189118;28;20026;-71
2022/08/22 11:39:36;;;;;;;4.07;1.10;;;;;;;26.84;52.84;100661.16;5194904;28;20045;-71
2022/08/22 11:42:27;;;;;;;2.53;1.00;;;;;;;27.40;53.22;100647.28;5190783;28;20045;-71
2022/08/22 11:45:00;;;;;;;4.40;1.23;;;;;;;27.40;51.07;100650.81;5189441;28;20100;-72
2022/08/22 11:47:39;;;;;;;4.68;1.40;;;;;;;27.27;52.97;100644.19;5188767;28;20042;-71
2022/08/22 11:50:34;;;;;;;7.28;1.10;;;;;;;27.10;51.64;100653.97;5191749;28;20052;-71
2022/08/22 11:53:26;;;;;;;3.47;1.13;;;;;;;27.07;53.61;100645.38;5190998;28;20680;-71
2022/08/22 11:56:02;;;;;;;2.60;1.15;;;;;;;27.04;50.86;100654.59;5186076;28;20049;-72
2022/08/22 11:58:57;;;;;;;5.70;1.10;;;;;;;27.05;51.47;100642.84;5190393;28;20030;-73
2022/08/22 12:01:46;;;;;;;3.42;0.93;;;;;;;27.10;50.55;100642.41;5187791;28;20022;-72
2022/08/22 12:04:27;;;;;;;2.78;1.05;;;;;;;27.04;51.98;100643.00;5193141;28;20041;-72
2022/08/22 12:07:09;;;;;;;6.65;1.30;;;;;;;27.13;51.10;100637.56;5186767;28;20380;-72
2022/08/22 12:10:21;;;;;;;3.45;1.02;;;;;;;27.30;51.36;100639.34;5188235;28;20053;-72
2022/08/22 12:13:05;;;;;;;8.00;1.25;;;;;;;27.20;50.38;100638.63;5149478;28;20044;-72
2022/08/22 12:15:49;;;;;;;4.55;1.17;;;;;;;27.42;50.28;100642.63;5190012;28;20041;-72
2022/08/22 12:18:53;;;;;;;4.30;1.60;;;;;;;27.60;53.59;100633.44;5182552;28;20026;-74
2022/08/22 12:21:55;;;;;;;2.85;0.95;;;;;;;27.37;54.20;100635.03;5184839;28;20065;-72
2022/08/22 12:24:46;;;;;;;3.42;1.08;;;;;;;27.55;51.62;100637.63;5189410;28;20430;-73
2022/08/22 12:27:44;;;;;;;2.75;1.20;;;;;;;27.45;51.49;100636.91;5186518;28;20042;-73
2022/08/22 12:30:36;;;;;;;3.55;1.00;;;;;;;27.74;52.08;100635.56;5191214;28;20076;-72
2022/08/22 12:33:17;;;;;;;3.95;1.15;;;;;;;27.89;51.02;100625.88;5184024;28;20025;-73
2022/08/22 12:35:52;;;;;;;3.30;1.27;;;;;;;27.72;48.44;100632.19;5193005;28;20037;-73
2022/08/22 12:38:47;;;;;;;5.85;1.20;;;;;;;27.75;49.60;100628.38;5178656;28;20029;-73
2022/08/22 12:41:39;;;;;;;2.72;1.10;;;;;;;27.42;50.31;100621.94;5211316;22;20060;-74
2022/08/22 12:44:48;;;;;;;6.85;1.10;;;;;;;27.68;51.87;100622.75;5182066;28;20061;-74
2022/08/22 12:47:43;;;;;;;3.85;1.20;;;;;;;27.85;49.94;100608.41;5186586;28;20103;-76